sensor_id;sensor_type;location;lat;lon;timestamp;P1;durP1;ratioP1;P2;durP2;ratioP2
40995;SDS011;26723;57.478;12.066;2023-03-01T00:00:18;2.17;;;1.93;;
40995;SDS011;26723;57.478;12.066;2023-03-01T00:03:27;1.63;;;1.53;;
40995;SDS011;26723;57.478;12.066;2023-03-01T00:06:36;2.70;;;2.17;;
40995;SDS011;26723;57.478;12.066;2023-03-01T00:09:44;2.70;;;1.83;;
40995;SDS011;26723;57.478;12.066;2023-03-01T00:12:54;2.23;;;2.03;;
40995;SDS011;26723;57.478;12.066;2023-03-01T00:16:03;2.57;;;1.97;;
40995;SDS011;26723;57.478;12.066;2023-03-01T00:19:14;2.47;;;2.20;;
40995;SDS011;26723;57.478;12.066;2023-03-01T00:22:24;2.33;;;1.70;;
40995;SDS011;26723;57.478;12.066;2023-03-01T00:25:40;2.40;;;2.10;;
40995;SDS011;26723;57.478;12.066;2023-03-01T00:28:50;2.40;;;2.03;;
40995;SDS011;26723;57.478;12.066;2023-03-01T00:31:59;4.57;;;2.67;;
40995;SDS011;26723;57.478;12.066;2023-03-01T00:35:07;2.23;;;1.90;;
40995;SDS011;26723;57.478;12.066;2023-03-01T00:38:16;2.00;;;1.80;;
40995;SDS011;26723;57.478;12.066;2023-03-01T00:41:24;1.90;;;1.70;;
40995;SDS011;26723;57.478;12.066;2023-03-01T00:44:35;2.50;;;2.10;;
40995;SDS011;26723;57.478;12.066;2023-03-01T00:47:43;1.90;;;1.80;;
40995;SDS011;26723;57.478;12.066;2023-03-01T00:50:52;2.90;;;2.03;;
40995;SDS011;26723;57.478;12.066;2023-03-01T00:54:01;2.70;;;2.07;;
40995;SDS011;26723;57.478;12.066;2023-03-01T00:57:10;1.93;;;1.83;;
40995;SDS011;26723;57.478;12.066;2023-03-01T01:00:20;2.13;;;1.93;;
40995;SDS011;26723;57.478;12.066;2023-03-01T01:03:29;2.40;;;2.00;;
40995;SDS011;26723;57.478;12.066;2023-03-01T01:06:38;3.00;;;2.17;;
40995;SDS011;26723;57.478;12.066;2023-03-01T01:09:51;2.30;;;2.10;;
40995;SDS011;26723;57.478;12.066;2023-03-01T01:12:59;2.33;;;2.10;;
40995;SDS011;26723;57.478;12.066;2023-03-01T01:16:09;1.93;;;1.80;;
40995;SDS011;26723;57.478;12.066;2023-03-01T01:19:18;2.73;;;2.10;;
40995;SDS011;26723;57.478;12.066;2023-03-01T01:22:27;2.07;;;1.87;;
40995;SDS011;26723;57.478;12.066;2023-03-01T01:25:35;2.90;;;2.10;;
40995;SDS011;26723;57.478;12.066;2023-03-01T01:28:44;1.90;;;1.80;;
40995;SDS011;26723;57.478;12.066;2023-03-01T01:31:54;2.13;;;1.70;;
40995;SDS011;26723;57.478;12.066;2023-03-01T01:35:02;2.40;;;2.17;;
40995;SDS011;26723;57.478;12.066;2023-03-01T01:38:11;2.40;;;2.20;;
40995;SDS011;26723;57.478;12.066;2023-03-01T01:41:21;2.37;;;2.17;;
40995;SDS011;26723;57.478;12.066;2023-03-01T01:44:30;1.97;;;1.83;;
40995;SDS011;26723;57.478;12.066;2023-03-01T01:47:42;2.87;;;2.50;;
40995;SDS011;26723;57.478;12.066;2023-03-01T01:50:55;2.53;;;2.30;;
40995;SDS011;26723;57.478;12.066;2023-03-01T01:54:09;2.50;;;2.30;;
40995;SDS011;26723;57.478;12.066;2023-03-01T01:57:20;3.20;;;1.73;;
40995;SDS011;26723;57.478;12.066;2023-03-01T02:00:31;3.50;;;2.10;;
40995;SDS011;26723;57.478;12.066;2023-03-01T02:03:41;3.03;;;2.13;;
40995;SDS011;26723;57.478;12.066;2023-03-01T02:06:53;2.37;;;2.03;;
40995;SDS011;26723;57.478;12.066;2023-03-01T02:10:06;1.60;;;1.50;;
40995;SDS011;26723;57.478;12.066;2023-03-01T02:13:15;2.10;;;1.90;;
40995;SDS011;26723;57.478;12.066;2023-03-01T02:16:23;2.50;;;2.30;;
40995;SDS011;26723;57.478;12.066;2023-03-01T02:19:41;1.57;;;1.50;;
40995;SDS011;26723;57.478;12.066;2023-03-01T02:22:56;1.90;;;1.80;;
40995;SDS011;26723;57.478;12.066;2023-03-01T02:26:07;1.93;;;1.60;;
40995;SDS011;26723;57.478;12.066;2023-03-01T02:29:24;1.97;;;1.87;;
40995;SDS011;26723;57.478;12.066;2023-03-01T02:32:34;3.73;;;2.20;;
40995;SDS011;26723;57.478;12.066;2023-03-01T02:35:43;2.10;;;1.90;;
40995;SDS011;26723;57.478;12.066;2023-03-01T02:38:52;1.97;;;1.77;;
40995;SDS011;26723;57.478;12.066;2023-03-01T02:42:04;2.47;;;2.27;;
40995;SDS011;26723;57.478;12.066;2023-03-01T02:45:15;1.83;;;1.73;;
40995;SDS011;26723;57.478;12.066;2023-03-01T02:48:23;2.47;;;1.93;;
40995;SDS011;26723;57.478;12.066;2023-03-01T02:51:41;3.47;;;2.27;;
40995;SDS011;26723;57.478;12.066;2023-03-01T02:54:56;2.13;;;1.93;;
40995;SDS011;26723;57.478;12.066;2023-03-01T02:58:08;2.67;;;2.23;;
40995;SDS011;26723;57.478;12.066;2023-03-01T03:01:19;2.27;;;2.13;;
40995;SDS011;26723;57.478;12.066;2023-03-01T03:04:27;1.97;;;1.77;;
40995;SDS011;26723;57.478;12.066;2023-03-01T03:07:36;2.60;;;2.03;;
40995;SDS011;26723;57.478;12.066;2023-03-01T03:10:46;3.27;;;2.10;;
40995;SDS011;26723;57.478;12.066;2023-03-01T03:13:55;2.13;;;2.00;;
40995;SDS011;26723;57.478;12.066;2023-03-01T03:17:05;2.33;;;2.23;;
40995;SDS011;26723;57.478;12.066;2023-03-01T03:20:14;2.33;;;1.90;;
40995;SDS011;26723;57.478;12.066;2023-03-01T03:23:25;2.70;;;2.30;;
40995;SDS011;26723;57.478;12.066;2023-03-01T03:26:35;2.57;;;1.90;;
40995;SDS011;26723;57.478;12.066;2023-03-01T03:29:44;2.33;;;2.13;;
40995;SDS011;26723;57.478;12.066;2023-03-01T03:32:54;2.23;;;2.03;;
40995;SDS011;26723;57.478;12.066;2023-03-01T03:36:04;2.53;;;1.90;;
40995;SDS011;26723;57.478;12.066;2023-03-01T03:39:13;2.50;;;2.30;;
40995;SDS011;26723;57.478;12.066;2023-03-01T03:42:21;2.47;;;2.00;;
40995;SDS011;26723;57.478;12.066;2023-03-01T03:45:30;4.27;;;2.37;;
40995;SDS011;26723;57.478;12.066;2023-03-01T03:48:42;2.03;;;1.90;;
40995;SDS011;26723;57.478;12.066;2023-03-01T03:51:52;3.07;;;1.87;;
40995;SDS011;26723;57.478;12.066;2023-03-01T03:55:00;2.90;;;2.20;;
40995;SDS011;26723;57.478;12.066;2023-03-01T03:58:08;2.00;;;1.83;;
40995;SDS011;26723;57.478;12.066;2023-03-01T04:01:18;3.23;;;2.10;;
40995;SDS011;26723;57.478;12.066;2023-03-01T04:04:28;3.17;;;1.93;;
40995;SDS011;26723;57.478;12.066;2023-03-01T04:07:37;2.20;;;2.10;;
40995;SDS011;26723;57.478;12.066;2023-03-01T04:10:47;2.33;;;2.13;;
40995;SDS011;26723;57.478;12.066;2023-03-01T04:13:58;4.23;;;2.10;;
40995;SDS011;26723;57.478;12.066;2023-03-01T04:17:06;2.17;;;2.00;;
40995;SDS011;26723;57.478;12.066;2023-03-01T04:20:17;2.20;;;2.07;;
40995;SDS011;26723;57.478;12.066;2023-03-01T04:23:31;2.30;;;2.10;;
40995;SDS011;26723;57.478;12.066;2023-03-01T04:26:40;2.83;;;2.07;;
40995;SDS011;26723;57.478;12.066;2023-03-01T04:29:48;2.40;;;2.30;;
40995;SDS011;26723;57.478;12.066;2023-03-01T04:32:56;2.67;;;2.27;;
40995;SDS011;26723;57.478;12.066;2023-03-01T04:36:07;2.57;;;2.20;;
40995;SDS011;26723;57.478;12.066;2023-03-01T04:39:16;2.00;;;1.90;;
40995;SDS011;26723;57.478;12.066;2023-03-01T04:42:24;1.87;;;1.77;;
40995;SDS011;26723;57.478;12.066;2023-03-01T04:45:33;2.37;;;2.10;;
40995;SDS011;26723;57.478;12.066;2023-03-01T04:48:44;2.27;;;1.93;;
40995;SDS011;26723;57.478;12.066;2023-03-01T04:51:55;6.20;;;2.40;;
40995;SDS011;26723;57.478;12.066;2023-03-01T04:55:05;2.47;;;1.90;;
40995;SDS011;26723;57.478;12.066;2023-03-01T04:58:14;2.27;;;2.07;;
40995;SDS011;26723;57.478;12.066;2023-03-01T05:01:22;2.17;;;1.80;;
40995;SDS011;26723;57.478;12.066;2023-03-01T05:04:30;2.13;;;1.93;;
40995;SDS011;26723;57.478;12.066;2023-03-01T05:07:40;2.53;;;2.33;;
40995;SDS011;26723;57.478;12.066;2023-03-01T05:10:49;2.50;;;2.07;;
40995;SDS011;26723;57.478;12.066;2023-03-01T05:13:59;2.17;;;1.97;;
40995;SDS011;26723;57.478;12.066;2023-03-01T05:17:08;2.27;;;2.03;;
40995;SDS011;26723;57.478;12.066;2023-03-01T05:20:17;2.00;;;1.90;;
40995;SDS011;26723;57.478;12.066;2023-03-01T05:23:30;2.20;;;2.00;;
40995;SDS011;26723;57.478;12.066;2023-03-01T05:26:39;1.70;;;1.60;;
40995;SDS011;26723;57.478;12.066;2023-03-01T05:29:48;3.17;;;2.10;;
40995;SDS011;26723;57.478;12.066;2023-03-01T05:32:56;4.97;;;2.20;;
40995;SDS011;26723;57.478;12.066;2023-03-01T05:36:05;2.37;;;2.17;;
40995;SDS011;26723;57.478;12.066;2023-03-01T05:39:16;1.60;;;1.50;;
40995;SDS011;26723;57.478;12.066;2023-03-01T05:42:24;4.20;;;1.80;;
40995;SDS011;26723;57.478;12.066;2023-03-01T05:45:32;2.40;;;2.20;;
40995;SDS011;26723;57.478;12.066;2023-03-01T05:48:43;3.17;;;1.60;;
40995;SDS011;26723;57.478;12.066;2023-03-01T05:51:52;1.80;;;1.60;;
40995;SDS011;26723;57.478;12.066;2023-03-01T05:55:03;2.00;;;1.87;;
40995;SDS011;26723;57.478;12.066;2023-03-01T05:58:12;2.37;;;1.90;;
40995;SDS011;26723;57.478;12.066;2023-03-01T06:01:22;2.30;;;2.10;;
40995;SDS011;26723;57.478;12.066;2023-03-01T06:04:31;1.80;;;1.70;;
40995;SDS011;26723;57.478;12.066;2023-03-01T06:07:39;2.17;;;2.00;;
40995;SDS011;26723;57.478;12.066;2023-03-01T06:10:50;2.03;;;1.90;;
40995;SDS011;26723;57.478;12.066;2023-03-01T06:13:58;2.70;;;2.00;;
40995;SDS011;26723;57.478;12.066;2023-03-01T06:17:06;3.30;;;2.00;;
40995;SDS011;26723;57.478;12.066;2023-03-01T06:20:16;2.13;;;1.83;;
40995;SDS011;26723;57.478;12.066;2023-03-01T06:23:25;2.17;;;2.00;;
40995;SDS011;26723;57.478;12.066;2023-03-01T06:26:35;1.70;;;1.60;;
40995;SDS011;26723;57.478;12.066;2023-03-01T06:29:43;2.23;;;1.83;;
40995;SDS011;26723;57.478;12.066;2023-03-01T06:32:52;2.57;;;1.70;;
40995;SDS011;26723;57.478;12.066;2023-03-01T06:36:07;1.90;;;1.80;;
40995;SDS011;26723;57.478;12.066;2023-03-01T06:39:17;2.30;;;2.10;;
40995;SDS011;26723;57.478;12.066;2023-03-01T06:42:26;2.30;;;2.10;;
40995;SDS011;26723;57.478;12.066;2023-03-01T06:45:35;3.10;;;2.40;;
40995;SDS011;26723;57.478;12.066;2023-03-01T06:48:44;1.87;;;1.70;;
40995;SDS011;26723;57.478;12.066;2023-03-01T06:51:54;5.40;;;2.00;;
40995;SDS011;26723;57.478;12.066;2023-03-01T06:55:02;2.20;;;2.10;;
40995;SDS011;26723;57.478;12.066;2023-03-01T06:58:13;3.87;;;2.03;;
40995;SDS011;26723;57.478;12.066;2023-03-01T07:01:21;4.07;;;1.93;;
40995;SDS011;26723;57.478;12.066;2023-03-01T07:04:30;2.70;;;1.93;;
40995;SDS011;26723;57.478;12.066;2023-03-01T07:07:38;2.57;;;2.37;;
40995;SDS011;26723;57.478;12.066;2023-03-01T07:10:47;2.40;;;2.20;;
40995;SDS011;26723;57.478;12.066;2023-03-01T07:13:59;3.15;;;2.20;;
40995;SDS011;26723;57.478;12.066;2023-03-01T07:17:08;2.75;;;2.10;;
40995;SDS011;26723;57.478;12.066;2023-03-01T07:20:16;2.08;;;1.98;;
40995;SDS011;26723;57.478;12.066;2023-03-01T07:23:28;3.17;;;1.70;;
40995;SDS011;26723;57.478;12.066;2023-03-01T07:26:37;2.63;;;2.10;;
40995;SDS011;26723;57.478;12.066;2023-03-01T07:29:47;2.75;;;2.10;;
40995;SDS011;26723;57.478;12.066;2023-03-01T07:32:56;1.98;;;1.88;;
40995;SDS011;26723;57.478;12.066;2023-03-01T07:36:05;2.55;;;1.92;;
40995;SDS011;26723;57.478;12.066;2023-03-01T07:39:14;2.13;;;2.03;;
40995;SDS011;26723;57.478;12.066;2023-03-01T07:42:25;2.30;;;2.10;;
40995;SDS011;26723;57.478;12.066;2023-03-01T07:45:34;1.60;;;1.50;;
40995;SDS011;26723;57.478;12.066;2023-03-01T07:48:43;2.00;;;1.90;;
40995;SDS011;26723;57.478;12.066;2023-03-01T07:51:52;1.40;;;1.40;;
40995;SDS011;26723;57.478;12.066;2023-03-01T07:55:01;1.13;;;1.13;;
40995;SDS011;26723;57.478;12.066;2023-03-01T07:58:09;1.42;;;1.40;;
40995;SDS011;26723;57.478;12.066;2023-03-01T08:01:20;1.67;;;1.58;;
40995;SDS011;26723;57.478;12.066;2023-03-01T08:04:29;1.40;;;1.30;;
40995;SDS011;26723;57.478;12.066;2023-03-01T08:07:37;1.10;;;1.10;;
40995;SDS011;26723;57.478;12.066;2023-03-01T08:10:45;0.98;;;0.98;;
40995;SDS011;26723;57.478;12.066;2023-03-01T08:13:54;1.45;;;1.23;;
40995;SDS011;26723;57.478;12.066;2023-03-01T08:17:04;0.90;;;0.90;;
40995;SDS011;26723;57.478;12.066;2023-03-01T08:20:12;1.00;;;1.00;;
40995;SDS011;26723;57.478;12.066;2023-03-01T08:23:22;1.08;;;1.00;;
40995;SDS011;26723;57.478;12.066;2023-03-01T08:26:31;0.90;;;0.88;;
40995;SDS011;26723;57.478;12.066;2023-03-01T08:29:39;0.90;;;0.90;;
40995;SDS011;26723;57.478;12.066;2023-03-01T08:32:49;0.80;;;0.80;;
40995;SDS011;26723;57.478;12.066;2023-03-01T08:36:02;0.80;;;0.80;;
40995;SDS011;26723;57.478;12.066;2023-03-01T08:39:15;0.90;;;0.90;;
40995;SDS011;26723;57.478;12.066;2023-03-01T08:42:25;0.88;;;0.88;;
40995;SDS011;26723;57.478;12.066;2023-03-01T08:45:34;0.82;;;0.82;;
40995;SDS011;26723;57.478;12.066;2023-03-01T08:48:44;1.17;;;1.13;;
40995;SDS011;26723;57.478;12.066;2023-03-01T08:51:52;0.98;;;0.98;;
40995;SDS011;26723;57.478;12.066;2023-03-01T08:55:01;1.00;;;1.00;;
40995;SDS011;26723;57.478;12.066;2023-03-01T08:58:09;1.05;;;0.90;;
40995;SDS011;26723;57.478;12.066;2023-03-01T09:01:18;0.75;;;0.75;;
40995;SDS011;26723;57.478;12.066;2023-03-01T09:04:28;1.63;;;1.20;;
40995;SDS011;26723;57.478;12.066;2023-03-01T09:07:36;1.00;;;1.00;;
40995;SDS011;26723;57.478;12.066;2023-03-01T09:10:45;0.90;;;0.90;;
40995;SDS011;26723;57.478;12.066;2023-03-01T09:13:53;1.05;;;0.80;;
40995;SDS011;26723;57.478;12.066;2023-03-01T09:17:02;0.82;;;0.82;;
40995;SDS011;26723;57.478;12.066;2023-03-01T09:20:12;0.70;;;0.70;;
40995;SDS011;26723;57.478;12.066;2023-03-01T09:23:20;0.90;;;0.90;;
40995;SDS011;26723;57.478;12.066;2023-03-01T09:26:28;1.02;;;0.93;;
40995;SDS011;26723;57.478;12.066;2023-03-01T09:29:37;0.93;;;0.93;;
40995;SDS011;26723;57.478;12.066;2023-03-01T09:32:46;0.95;;;0.70;;
40995;SDS011;26723;57.478;12.066;2023-03-01T09:35:59;1.30;;;0.65;;
40995;SDS011;26723;57.478;12.066;2023-03-01T09:39:08;0.80;;;0.80;;
40995;SDS011;26723;57.478;12.066;2023-03-01T09:42:17;0.70;;;0.70;;
40995;SDS011;26723;57.478;12.066;2023-03-01T09:45:27;0.80;;;0.80;;
40995;SDS011;26723;57.478;12.066;2023-03-01T09:48:41;0.60;;;0.60;;
40995;SDS011;26723;57.478;12.066;2023-03-01T09:51:58;0.80;;;0.80;;
40995;SDS011;26723;57.478;12.066;2023-03-01T09:55:12;0.60;;;0.60;;
40995;SDS011;26723;57.478;12.066;2023-03-01T09:58:27;0.73;;;0.55;;
40995;SDS011;26723;57.478;12.066;2023-03-01T10:01:44;0.68;;;0.68;;
40995;SDS011;26723;57.478;12.066;2023-03-01T10:05:03;0.85;;;0.85;;
40995;SDS011;26723;57.478;12.066;2023-03-01T10:08:31;0.63;;;0.60;;
40995;SDS011;26723;57.478;12.066;2023-03-01T10:11:48;0.82;;;0.80;;
40995;SDS011;26723;57.478;12.066;2023-03-01T10:15:00;0.50;;;0.50;;
40995;SDS011;26723;57.478;12.066;2023-03-01T10:18:14;0.75;;;0.75;;
40995;SDS011;26723;57.478;12.066;2023-03-01T10:21:25;0.80;;;0.80;;
40995;SDS011;26723;57.478;12.066;2023-03-01T10:24:37;0.68;;;0.60;;
40995;SDS011;26723;57.478;12.066;2023-03-01T10:27:46;0.55;;;0.55;;
40995;SDS011;26723;57.478;12.066;2023-03-01T10:30:59;0.60;;;0.60;;
40995;SDS011;26723;57.478;12.066;2023-03-01T10:34:13;0.60;;;0.60;;
40995;SDS011;26723;57.478;12.066;2023-03-01T10:37:24;0.50;;;0.50;;
40995;SDS011;26723;57.478;12.066;2023-03-01T10:40:35;1.45;;;0.70;;
40995;SDS011;26723;57.478;12.066;2023-03-01T10:43:57;2.25;;;0.77;;
40995;SDS011;26723;57.478;12.066;2023-03-01T10:47:12;0.80;;;0.80;;
40995;SDS011;26723;57.478;12.066;2023-03-01T10:50:28;1.05;;;0.73;;
40995;SDS011;26723;57.478;12.066;2023-03-01T10:53:37;0.68;;;0.50;;
40995;SDS011;26723;57.478;12.066;2023-03-01T10:56:51;0.40;;;0.40;;
40995;SDS011;26723;57.478;12.066;2023-03-01T11:00:03;2.17;;;0.60;;
40995;SDS011;26723;57.478;12.066;2023-03-01T11:03:31;0.30;;;0.30;;
40995;SDS011;26723;57.478;12.066;2023-03-01T11:06:41;0.50;;;0.50;;
40995;SDS011;26723;57.478;12.066;2023-03-01T11:09:49;0.50;;;0.50;;
40995;SDS011;26723;57.478;12.066;2023-03-01T11:13:08;0.60;;;0.47;;
40995;SDS011;26723;57.478;12.066;2023-03-01T11:16:23;0.68;;;0.68;;
40995;SDS011;26723;57.478;12.066;2023-03-01T11:19:33;2.25;;;0.70;;
40995;SDS011;26723;57.478;12.066;2023-03-01T11:22:43;0.35;;;0.35;;
40995;SDS011;26723;57.478;12.066;2023-03-01T11:25:55;0.40;;;0.40;;
40995;SDS011;26723;57.478;12.066;2023-03-01T11:29:11;0.38;;;0.38;;
40995;SDS011;26723;57.478;12.066;2023-03-01T11:32:27;0.60;;;0.60;;
40995;SDS011;26723;57.478;12.066;2023-03-01T11:35:41;0.60;;;0.60;;
40995;SDS011;26723;57.478;12.066;2023-03-01T11:38:54;0.45;;;0.45;;
40995;SDS011;26723;57.478;12.066;2023-03-01T11:42:05;0.45;;;0.45;;
40995;SDS011;26723;57.478;12.066;2023-03-01T11:45:26;0.80;;;0.57;;
40995;SDS011;26723;57.478;12.066;2023-03-01T11:48:49;0.60;;;0.60;;
40995;SDS011;26723;57.478;12.066;2023-03-01T11:52:06;1.25;;;1.05;;
40995;SDS011;26723;57.478;12.066;2023-03-01T11:55:35;0.80;;;0.80;;
40995;SDS011;26723;57.478;12.066;2023-03-01T11:59:03;0.70;;;0.70;;
40995;SDS011;26723;57.478;12.066;2023-03-01T12:02:40;0.75;;;0.75;;
40995;SDS011;26723;57.478;12.066;2023-03-01T12:06:17;0.77;;;0.65;;
40995;SDS011;26723;57.478;12.066;2023-03-01T12:09:39;2.37;;;0.90;;
40995;SDS011;26723;57.478;12.066;2023-03-01T12:13:16;0.40;;;0.40;;
40995;SDS011;26723;57.478;12.066;2023-03-01T12:16:40;0.77;;;0.77;;
40995;SDS011;26723;57.478;12.066;2023-03-01T12:20:09;0.40;;;0.20;;
40995;SDS011;26723;57.478;12.066;2023-03-01T12:23:29;0.40;;;0.40;;
40995;SDS011;26723;57.478;12.066;2023-03-01T12:26:50;0.40;;;0.40;;
40995;SDS011;26723;57.478;12.066;2023-03-01T12:30:14;0.73;;;0.30;;
40995;SDS011;26723;57.478;12.066;2023-03-01T12:33:34;0.32;;;0.32;;
40995;SDS011;26723;57.478;12.066;2023-03-01T12:36:58;0.33;;;0.23;;
40995;SDS011;26723;57.478;12.066;2023-03-01T12:40:24;0.20;;;0.20;;
40995;SDS011;26723;57.478;12.066;2023-03-01T12:43:43;1.13;;;0.40;;
40995;SDS011;26723;57.478;12.066;2023-03-01T12:47:12;0.67;;;0.40;;
40995;SDS011;26723;57.478;12.066;2023-03-01T12:50:34;0.30;;;0.30;;
40995;SDS011;26723;57.478;12.066;2023-03-01T12:53:48;0.73;;;0.30;;
40995;SDS011;26723;57.478;12.066;2023-03-01T12:56:59;0.63;;;0.40;;
40995;SDS011;26723;57.478;12.066;2023-03-01T13:00:21;1.07;;;0.30;;
40995;SDS011;26723;57.478;12.066;2023-03-01T13:03:38;0.30;;;0.30;;
40995;SDS011;26723;57.478;12.066;2023-03-01T13:07:03;0.40;;;0.33;;
40995;SDS011;26723;57.478;12.066;2023-03-01T13:10:23;0.47;;;0.47;;
40995;SDS011;26723;57.478;12.066;2023-03-01T13:13:37;0.40;;;0.40;;
40995;SDS011;26723;57.478;12.066;2023-03-01T13:16:45;0.13;;;0.13;;
40995;SDS011;26723;57.478;12.066;2023-03-01T13:19:56;0.30;;;0.30;;
40995;SDS011;26723;57.478;12.066;2023-03-01T13:23:09;1.70;;;0.30;;
40995;SDS011;26723;57.478;12.066;2023-03-01T13:26:22;0.77;;;0.30;;
40995;SDS011;26723;57.478;12.066;2023-03-01T13:29:32;0.30;;;0.30;;
40995;SDS011;26723;57.478;12.066;2023-03-01T13:32:52;0.20;;;0.20;;
40995;SDS011;26723;57.478;12.066;2023-03-01T13:36:46;0.20;;;0.20;;
40995;SDS011;26723;57.478;12.066;2023-03-01T13:39:57;1.43;;;0.70;;
40995;SDS011;26723;57.478;12.066;2023-03-01T13:43:26;0.20;;;0.20;;
40995;SDS011;26723;57.478;12.066;2023-03-01T13:46:36;0.20;;;0.20;;
40995;SDS011;26723;57.478;12.066;2023-03-01T13:49:47;0.30;;;0.30;;
40995;SDS011;26723;57.478;12.066;2023-03-01T13:52:59;0.40;;;0.37;;
40995;SDS011;26723;57.478;12.066;2023-03-01T13:56:12;0.30;;;0.30;;
40995;SDS011;26723;57.478;12.066;2023-03-01T13:59:24;0.60;;;0.60;;
40995;SDS011;26723;57.478;12.066;2023-03-01T14:02:33;1.90;;;0.70;;
40995;SDS011;26723;57.478;12.066;2023-03-01T14:05:43;0.40;;;0.40;;
40995;SDS011;26723;57.478;12.066;2023-03-01T14:09:20;0.27;;;0.27;;
40995;SDS011;26723;57.478;12.066;2023-03-01T14:12:34;1.47;;;0.47;;
40995;SDS011;26723;57.478;12.066;2023-03-01T14:15:57;0.30;;;0.23;;
40995;SDS011;26723;57.478;12.066;2023-03-01T14:19:18;1.13;;;0.47;;
40995;SDS011;26723;57.478;12.066;2023-03-01T14:22:40;0.40;;;0.40;;
40995;SDS011;26723;57.478;12.066;2023-03-01T14:25:50;0.30;;;0.27;;
40995;SDS011;26723;57.478;12.066;2023-03-01T14:29:00;0.73;;;0.30;;
40995;SDS011;26723;57.478;12.066;2023-03-01T14:32:11;0.47;;;0.30;;
40995;SDS011;26723;57.478;12.066;2023-03-01T14:35:26;0.57;;;0.47;;
40995;SDS011;26723;57.478;12.066;2023-03-01T14:38:38;0.60;;;0.33;;
40995;SDS011;26723;57.478;12.066;2023-03-01T14:41:47;0.30;;;0.30;;
40995;SDS011;26723;57.478;12.066;2023-03-01T14:44:56;0.73;;;0.40;;
40995;SDS011;26723;57.478;12.066;2023-03-01T14:48:07;0.50;;;0.27;;
40995;SDS011;26723;57.478;12.066;2023-03-01T14:51:16;1.37;;;0.47;;
40995;SDS011;26723;57.478;12.066;2023-03-01T14:54:25;0.50;;;0.50;;
40995;SDS011;26723;57.478;12.066;2023-03-01T14:57:35;0.93;;;0.53;;
40995;SDS011;26723;57.478;12.066;2023-03-01T15:00:46;0.70;;;0.43;;
40995;SDS011;26723;57.478;12.066;2023-03-01T15:03:59;0.83;;;0.60;;
40995;SDS011;26723;57.478;12.066;2023-03-01T15:07:09;0.43;;;0.43;;
40995;SDS011;26723;57.478;12.066;2023-03-01T15:10:21;2.00;;;0.70;;
40995;SDS011;26723;57.478;12.066;2023-03-01T15:13:31;1.07;;;0.70;;
40995;SDS011;26723;57.478;12.066;2023-03-01T15:16:40;2.40;;;0.90;;
40995;SDS011;26723;57.478;12.066;2023-03-01T15:19:51;2.53;;;0.73;;
40995;SDS011;26723;57.478;12.066;2023-03-01T15:23:00;0.83;;;0.53;;
40995;SDS011;26723;57.478;12.066;2023-03-01T15:26:20;1.40;;;0.60;;
40995;SDS011;26723;57.478;12.066;2023-03-01T15:29:31;0.87;;;0.60;;
40995;SDS011;26723;57.478;12.066;2023-03-01T15:32:46;1.80;;;0.57;;
40995;SDS011;26723;57.478;12.066;2023-03-01T15:35:57;0.97;;;0.50;;
40995;SDS011;26723;57.478;12.066;2023-03-01T15:42:50;0.53;;;0.53;;
40995;SDS011;26723;57.478;12.066;2023-03-01T15:45:59;0.70;;;0.70;;
40995;SDS011;26723;57.478;12.066;2023-03-01T15:49:19;4.27;;;0.63;;
40995;SDS011;26723;57.478;12.066;2023-03-01T15:52:39;1.37;;;0.80;;
40995;SDS011;26723;57.478;12.066;2023-03-01T15:55:49;0.40;;;0.40;;
40995;SDS011;26723;57.478;12.066;2023-03-01T15:58:58;1.17;;;0.83;;
40995;SDS011;26723;57.478;12.066;2023-03-01T16:02:08;0.67;;;0.67;;
40995;SDS011;26723;57.478;12.066;2023-03-01T16:05:20;0.93;;;0.57;;
40995;SDS011;26723;57.478;12.066;2023-03-01T16:08:32;1.30;;;0.70;;
40995;SDS011;26723;57.478;12.066;2023-03-01T16:11:40;0.77;;;0.50;;
40995;SDS011;26723;57.478;12.066;2023-03-01T16:14:49;0.53;;;0.50;;
40995;SDS011;26723;57.478;12.066;2023-03-01T16:18:00;0.73;;;0.60;;
40995;SDS011;26723;57.478;12.066;2023-03-01T16:21:12;1.93;;;0.60;;
40995;SDS011;26723;57.478;12.066;2023-03-01T16:24:24;0.70;;;0.70;;
40995;SDS011;26723;57.478;12.066;2023-03-01T16:27:32;1.20;;;0.90;;
40995;SDS011;26723;57.478;12.066;2023-03-01T16:30:45;4.13;;;0.90;;
40995;SDS011;26723;57.478;12.066;2023-03-01T16:33:55;2.20;;;0.77;;
40995;SDS011;26723;57.478;12.066;2023-03-01T16:37:04;1.43;;;0.80;;
40995;SDS011;26723;57.478;12.066;2023-03-01T16:40:16;0.77;;;0.70;;
40995;SDS011;26723;57.478;12.066;2023-03-01T16:43:27;2.47;;;0.87;;
40995;SDS011;26723;57.478;12.066;2023-03-01T16:46:36;1.00;;;0.97;;
40995;SDS011;26723;57.478;12.066;2023-03-01T16:49:44;0.90;;;0.90;;
40995;SDS011;26723;57.478;12.066;2023-03-01T16:52:53;2.93;;;1.20;;
40995;SDS011;26723;57.478;12.066;2023-03-01T16:56:03;4.97;;;1.00;;
40995;SDS011;26723;57.478;12.066;2023-03-01T16:59:14;2.60;;;1.10;;
40995;SDS011;26723;57.478;12.066;2023-03-01T17:02:23;4.57;;;1.37;;
40995;SDS011;26723;57.478;12.066;2023-03-01T17:05:31;2.57;;;1.23;;
40995;SDS011;26723;57.478;12.066;2023-03-01T17:08:41;1.83;;;1.20;;
40995;SDS011;26723;57.478;12.066;2023-03-01T17:11:51;2.00;;;0.97;;
40995;SDS011;26723;57.478;12.066;2023-03-01T17:15:00;3.67;;;1.13;;
40995;SDS011;26723;57.478;12.066;2023-03-01T17:18:09;2.17;;;1.67;;
40995;SDS011;26723;57.478;12.066;2023-03-01T17:21:18;3.70;;;1.53;;
40995;SDS011;26723;57.478;12.066;2023-03-01T17:24:26;6.83;;;1.40;;
40995;SDS011;26723;57.478;12.066;2023-03-01T17:27:37;3.17;;;1.10;;
40995;SDS011;26723;57.478;12.066;2023-03-01T17:30:46;3.10;;;1.50;;
40995;SDS011;26723;57.478;12.066;2023-03-01T17:33:54;3.83;;;1.47;;
40995;SDS011;26723;57.478;12.066;2023-03-01T17:37:05;3.73;;;1.63;;
40995;SDS011;26723;57.478;12.066;2023-03-01T17:40:13;2.57;;;1.23;;
40995;SDS011;26723;57.478;12.066;2023-03-01T17:43:23;4.13;;;1.60;;
40995;SDS011;26723;57.478;12.066;2023-03-01T17:46:32;3.27;;;1.30;;
40995;SDS011;26723;57.478;12.066;2023-03-01T17:49:40;6.30;;;1.60;;
40995;SDS011;26723;57.478;12.066;2023-03-01T17:52:49;4.67;;;1.90;;
40995;SDS011;26723;57.478;12.066;2023-03-01T17:56:01;5.40;;;1.33;;
40995;SDS011;26723;57.478;12.066;2023-03-01T17:59:13;2.63;;;1.37;;
40995;SDS011;26723;57.478;12.066;2023-03-01T18:02:23;2.50;;;1.77;;
40995;SDS011;26723;57.478;12.066;2023-03-01T18:05:32;4.67;;;1.63;;
40995;SDS011;26723;57.478;12.066;2023-03-01T18:08:41;1.97;;;1.70;;
40995;SDS011;26723;57.478;12.066;2023-03-01T18:11:51;5.03;;;1.80;;
40995;SDS011;26723;57.478;12.066;2023-03-01T18:15:01;3.30;;;1.53;;
40995;SDS011;26723;57.478;12.066;2023-03-01T18:18:09;5.10;;;1.50;;
40995;SDS011;26723;57.478;12.066;2023-03-01T18:21:18;2.57;;;1.50;;
40995;SDS011;26723;57.478;12.066;2023-03-01T18:24:26;2.57;;;1.30;;
40995;SDS011;26723;57.478;12.066;2023-03-01T18:27:35;6.50;;;1.47;;
40995;SDS011;26723;57.478;12.066;2023-03-01T18:30:45;3.70;;;1.50;;
40995;SDS011;26723;57.478;12.066;2023-03-01T18:33:53;2.47;;;1.37;;
40995;SDS011;26723;57.478;12.066;2023-03-01T18:37:02;2.73;;;1.40;;
40995;SDS011;26723;57.478;12.066;2023-03-01T18:40:15;2.20;;;1.33;;
40995;SDS011;26723;57.478;12.066;2023-03-01T18:43:24;7.47;;;1.67;;
40995;SDS011;26723;57.478;12.066;2023-03-01T18:46:35;3.13;;;1.23;;
40995;SDS011;26723;57.478;12.066;2023-03-01T18:49:45;6.40;;;2.10;;
40995;SDS011;26723;57.478;12.066;2023-03-01T18:52:55;4.80;;;2.07;;
40995;SDS011;26723;57.478;12.066;2023-03-01T18:56:05;5.77;;;1.80;;
40995;SDS011;26723;57.478;12.066;2023-03-01T18:59:14;1.83;;;1.70;;